createdAt,value
2019-02-25T00:01:21.401Z,48.80
2019-02-25T00:04:13.782Z,49.00
2019-02-25T00:07:06.262Z,48.90
2019-02-25T00:09:58.427Z,49.20
2019-02-25T00:12:51.755Z,49.30
2019-02-25T00:15:44.127Z,49.50
2019-02-25T00:18:36.580Z,49.10
2019-02-25T00:21:29.004Z,49.30
2019-02-25T00:24:20.990Z,49.40
2019-02-25T00:27:13.587Z,49.30
2019-02-25T00:30:05.633Z,49.10
2019-02-25T00:32:57.642Z,49.20
2019-02-25T00:35:49.590Z,49.60
2019-02-25T00:38:41.523Z,49.10
2019-02-25T00:41:33.409Z,49.20
2019-02-25T00:44:25.451Z,49.00
2019-02-25T00:47:17.606Z,49.40
2019-02-25T00:50:11.258Z,49.60
2019-02-25T00:53:03.271Z,48.10
2019-02-25T00:55:55.164Z,49.00
2019-02-25T00:58:47.358Z,49.40
2019-02-25T01:01:39.612Z,49.30
2019-02-25T01:04:31.471Z,48.70
2019-02-25T01:07:23.590Z,49.50
2019-02-25T01:10:15.812Z,49.40
2019-02-25T01:13:08.046Z,49.30
2019-02-25T01:16:01.027Z,48.80
2019-02-25T01:18:53.899Z,49.20
2019-02-25T01:21:46.595Z,49.20
2019-02-25T01:24:38.612Z,49.20
2019-02-25T01:27:31.118Z,48.90
2019-02-25T01:30:23.657Z,49.20
2019-02-25T01:33:16.199Z,49.40
2019-02-25T01:36:09.989Z,49.40
2019-02-25T01:39:02.121Z,49.20
2019-02-25T01:41:55.607Z,49.10
2019-02-25T01:44:47.829Z,49.30
2019-02-25T01:47:40.056Z,49.30
2019-02-25T01:50:32.552Z,49.40
2019-02-25T01:53:24.877Z,49.20
2019-02-25T01:56:17.719Z,49.40
2019-02-25T01:59:10.512Z,48.90
2019-02-25T02:02:02.728Z,49.60
2019-02-25T02:04:54.630Z,49.30
2019-02-25T02:07:47.377Z,49.50
2019-02-25T02:10:39.529Z,49.40
2019-02-25T02:13:32.046Z,49.60
2019-02-25T02:16:24.352Z,49.70
2019-02-25T02:19:16.765Z,49.70
2019-02-25T02:22:09.246Z,49.60
2019-02-25T02:25:01.496Z,49.50
2019-02-25T02:27:54.764Z,49.40
2019-02-25T02:30:46.871Z,49.80
2019-02-25T02:33:39.017Z,49.70
2019-02-25T02:36:31.602Z,49.50
2019-02-25T02:39:23.771Z,49.70
2019-02-25T02:42:20.348Z,49.60
2019-02-25T02:45:29.749Z,48.50
2019-02-25T02:48:42.058Z,49.40
2019-02-25T02:51:34.249Z,49.70
2019-02-25T02:54:26.543Z,49.50
2019-02-25T02:57:19.673Z,49.70
2019-02-25T03:00:13.037Z,49.60
2019-02-25T03:03:05.327Z,49.70
2019-02-25T03:05:58.110Z,49.60
2019-02-25T03:08:49.946Z,49.40
2019-02-25T03:11:42.136Z,49.00
2019-02-25T03:14:34.987Z,49.60
2019-02-25T03:17:27.053Z,49.70
2019-02-25T03:20:18.984Z,49.80
2019-02-25T03:23:11.100Z,49.70
2019-02-25T03:26:03.599Z,49.60
2019-02-25T03:28:56.024Z,50.00
2019-02-25T03:31:48.852Z,49.60
2019-02-25T03:34:40.995Z,49.80
2019-02-25T03:37:34.474Z,49.80
2019-02-25T03:40:28.973Z,50.40
2019-02-25T03:43:21.012Z,50.50
2019-02-25T03:46:13.124Z,50.50
2019-02-25T03:49:05.324Z,50.30
2019-02-25T03:51:57.531Z,50.30
2019-02-25T03:54:49.580Z,50.30
2019-02-25T03:57:41.814Z,50.20
2019-02-25T04:00:33.897Z,50.20
2019-02-25T04:03:26.327Z,50.20
2019-02-25T04:06:18.635Z,50.10
2019-02-25T04:09:11.172Z,50.20
2019-02-25T04:12:05.836Z,50.20
2019-02-25T04:14:58.015Z,50.30
2019-02-25T04:17:53.538Z,50.50
2019-02-25T04:20:48.564Z,50.50
2019-02-25T04:23:41.942Z,50.50
2019-02-25T04:26:35.311Z,50.50
2019-02-25T04:29:27.819Z,50.60
2019-02-25T04:32:21.678Z,50.50
2019-02-25T04:35:21.336Z,50.50
2019-02-25T04:38:14.590Z,50.60
2019-02-25T04:41:07.316Z,50.70
2019-02-25T04:44:00.756Z,50.70
2019-02-25T04:46:54.631Z,50.80
2019-02-25T04:49:48.521Z,50.80
2019-02-25T04:52:42.948Z,50.70
2019-02-25T04:55:36.959Z,50.90
2019-02-25T04:58:31.721Z,50.90
2019-02-25T05:01:25.461Z,50.80
2019-02-25T05:04:17.403Z,51.00
2019-02-25T05:07:09.810Z,50.90
2019-02-25T05:10:03.065Z,50.90
2019-02-25T05:13:06.146Z,51.00
2019-02-25T05:15:58.697Z,51.30
2019-02-25T05:18:51.103Z,51.30
2019-02-25T05:21:45.827Z,51.50
2019-02-25T05:24:42.134Z,51.70
2019-02-25T05:27:35.973Z,51.80
2019-02-25T05:30:32.328Z,51.80
2019-02-25T05:33:54.111Z,52.00
2019-02-25T05:37:03.552Z,51.80
2019-02-25T05:40:06.133Z,51.60
2019-02-25T05:43:06.898Z,51.50
2019-02-25T05:46:08.401Z,51.30
2019-02-25T05:49:07.944Z,51.30
2019-02-25T05:52:08.269Z,51.00
2019-02-25T05:55:07.586Z,51.30
2019-02-25T05:58:05.893Z,51.30
2019-02-25T06:01:03.086Z,51.40
2019-02-25T06:04:03.951Z,51.40
2019-02-25T06:07:01.511Z,51.40
2019-02-25T06:09:57.073Z,51.50
2019-02-25T06:12:58.561Z,51.60
2019-02-25T06:16:00.726Z,51.60
2019-02-25T06:18:54.315Z,51.40
2019-02-25T06:21:53.651Z,51.40
2019-02-25T06:24:49.011Z,51.40
2019-02-25T06:27:49.815Z,51.40
2019-02-25T06:30:53.097Z,51.40
2019-02-25T06:34:03.399Z,51.20
2019-02-25T06:40:15.487Z,51.00
2019-02-25T06:43:15.833Z,50.80
2019-02-25T06:46:24.872Z,50.60
2019-02-25T06:49:17.855Z,50.70
2019-02-25T06:52:15.404Z,50.60
2019-02-25T06:55:47.713Z,50.50
2019-02-25T06:58:40.389Z,50.40
2019-02-25T07:01:33.282Z,50.20
2019-02-25T07:04:31.160Z,50.20
2019-02-25T07:07:40.330Z,50.20
2019-02-25T07:10:52.091Z,50.00
2019-02-25T07:13:53.567Z,50.10
2019-02-25T07:18:02.782Z,49.90
2019-02-25T07:20:13.474Z,49.90
2019-02-25T07:23:21.973Z,49.80
2019-02-25T07:26:38.393Z,49.80
2019-02-25T07:29:49.157Z,49.80
2019-02-25T07:33:05.027Z,49.90
2019-02-25T07:40:03.455Z,50.10
2019-02-25T07:43:15.476Z,50.00
2019-02-25T07:46:30.222Z,49.70
2019-02-25T07:49:46.966Z,50.00
2019-02-25T07:53:04.911Z,50.20
2019-02-25T07:59:37.410Z,50.20
2019-02-25T08:02:54.644Z,50.20
2019-02-25T08:06:13.134Z,50.20
2019-02-25T08:09:28.015Z,50.00
2019-02-25T08:12:45.039Z,50.00
2019-02-25T08:15:56.233Z,49.90
2019-02-25T08:19:19.338Z,50.10
2019-02-25T08:22:30.582Z,49.90
2019-02-25T08:26:00.083Z,49.90
2019-02-25T08:29:10.449Z,49.90
2019-02-25T08:32:25.656Z,50.00
2019-02-25T08:35:43.818Z,49.90
2019-02-25T08:38:50.584Z,50.70
2019-02-25T08:41:57.813Z,49.70
2019-02-25T08:45:00.311Z,49.70
2019-02-25T08:48:10.322Z,49.80
2019-02-25T08:51:02.351Z,50.00
2019-02-25T08:53:55.956Z,49.90
2019-02-25T08:56:48.592Z,50.00
2019-02-25T08:59:43.354Z,49.80
2019-02-25T09:02:36.952Z,49.80
2019-02-25T09:05:30.943Z,49.70
2019-02-25T09:08:24.124Z,49.60
2019-02-25T09:11:16.448Z,49.60
2019-02-25T09:14:08.807Z,49.60
2019-02-25T09:17:01.381Z,49.70
2019-02-25T09:19:54.225Z,49.50
2019-02-25T09:22:47.252Z,49.20
2019-02-25T09:25:39.283Z,49.20
2019-02-25T09:28:33.064Z,49.30
2019-02-25T09:31:27.030Z,49.20
2019-02-25T09:34:19.976Z,49.20
2019-02-25T09:37:13.241Z,49.20
2019-02-25T09:40:07.008Z,48.80
2019-02-25T09:43:00.605Z,48.90
2019-02-25T09:45:54.980Z,48.90
2019-02-25T09:48:50.357Z,48.60
2019-02-25T09:51:43.586Z,48.80
2019-02-25T09:54:39.574Z,48.80
2019-02-25T09:57:42.287Z,48.90
2019-02-25T10:00:42.577Z,48.70
2019-02-25T10:03:40.331Z,48.80
2019-02-25T10:06:41.731Z,48.70
2019-02-25T10:09:39.117Z,48.70
2019-02-25T10:12:31.995Z,48.80
2019-02-25T10:15:26.346Z,48.70
2019-02-25T10:18:19.211Z,49.00
2019-02-25T10:21:13.088Z,49.10
2019-02-25T10:24:05.474Z,49.10
2019-02-25T10:26:58.644Z,49.10
2019-02-25T10:29:49.825Z,49.30
2019-02-25T10:32:44.970Z,49.30
2019-02-25T10:35:37.603Z,49.30
2019-02-25T10:38:30.220Z,49.40
2019-02-25T10:41:26.164Z,49.40
2019-02-25T10:44:19.269Z,49.50
2019-02-25T10:47:13.559Z,49.60
2019-02-25T10:50:07.017Z,49.60
2019-02-25T10:53:03.476Z,49.50
2019-02-25T10:55:58.301Z,49.60
2019-02-25T10:58:50.898Z,49.60
2019-02-25T11:01:45.899Z,49.70
2019-02-25T11:04:38.312Z,49.70
2019-02-25T11:07:32.398Z,49.50
2019-02-25T11:10:35.458Z,49.70
2019-02-25T11:13:29.777Z,49.70
2019-02-25T11:16:22.736Z,49.90
2019-02-25T11:19:15.058Z,49.80
2019-02-25T11:22:09.939Z,49.80
2019-02-25T11:25:02.602Z,49.90
2019-02-25T11:28:09.846Z,49.90
2019-02-25T11:31:02.416Z,50.00
2019-02-25T11:33:56.448Z,50.10
2019-02-25T11:36:50.856Z,50.10
2019-02-25T11:39:43.545Z,49.90
2019-02-25T11:42:36.445Z,49.80
2019-02-25T11:45:28.969Z,49.70
2019-02-25T11:48:22.694Z,49.90
2019-02-25T11:51:15.228Z,49.60
2019-02-25T11:54:11.304Z,49.50
2019-02-25T11:57:04.120Z,49.70
2019-02-25T11:59:56.464Z,49.90
2019-02-25T12:02:49.364Z,49.70
2019-02-25T12:05:42.758Z,49.70
2019-02-25T12:08:36.601Z,50.00
2019-02-25T12:11:29.083Z,50.00
2019-02-25T12:14:23.296Z,49.80
2019-02-25T12:17:19.287Z,49.80
2019-02-25T12:20:16.797Z,49.70
2019-02-25T12:23:11.152Z,49.70
2019-02-25T12:26:05.392Z,49.80
2019-02-25T12:28:59.539Z,49.70
2019-02-25T12:31:59.364Z,49.90
2019-02-25T12:34:58.688Z,49.60
2019-02-25T12:37:58.013Z,49.50
2019-02-25T12:40:53.140Z,49.70
2019-02-25T12:44:01.846Z,49.80
2019-02-25T12:47:10.902Z,49.80
2019-02-25T12:50:15.711Z,49.70
2019-02-25T12:53:12.633Z,49.90
2019-02-25T12:56:10.907Z,50.00
2019-02-25T12:59:13.134Z,49.80
2019-02-25T13:02:11.268Z,49.80
2019-02-25T13:05:10.727Z,49.80
2019-02-25T13:11:07.676Z,53.60
2019-02-25T13:19:47.309Z,49.70
2019-02-25T13:22:52.355Z,49.90
2019-02-25T13:27:38.334Z,50.00
2019-02-25T13:30:36.936Z,49.80
2019-02-25T13:33:40.239Z,49.80
2019-02-25T13:36:42.624Z,49.80
2019-02-25T13:39:42.729Z,50.00
2019-02-25T13:42:49.154Z,50.20
2019-02-25T13:45:52.580Z,50.30
2019-02-25T13:48:57.793Z,50.30
2019-02-25T13:52:02.559Z,50.30
2019-02-25T13:55:09.103Z,50.40
2019-02-25T13:58:14.606Z,50.50
2019-02-25T14:01:28.976Z,50.50
2019-02-25T14:04:33.429Z,50.50
2019-02-25T14:07:39.289Z,50.50
2019-02-25T14:10:43.477Z,50.60
2019-02-25T14:13:48.406Z,50.60
2019-02-25T14:16:58.978Z,50.60
2019-02-25T14:20:06.894Z,50.70
2019-02-25T14:23:09.658Z,50.70
2019-02-25T14:26:18.948Z,50.80
2019-02-25T14:29:26.208Z,50.80
2019-02-25T14:32:24.161Z,50.80
2019-02-25T14:35:17.740Z,50.90
2019-02-25T14:38:12.390Z,50.90
2019-02-25T14:41:04.611Z,50.90
2019-02-25T14:43:58.728Z,50.90
2019-02-25T14:46:50.800Z,50.90
2019-02-25T14:49:43.010Z,50.90
2019-02-25T14:52:36.824Z,51.00
2019-02-25T14:55:29.744Z,50.90
2019-02-25T14:58:22.177Z,51.00
2019-02-25T15:01:14.356Z,51.00
2019-02-25T15:04:06.831Z,51.00
2019-02-25T15:06:59.815Z,51.10
2019-02-25T15:09:52.109Z,51.10
2019-02-25T15:12:44.459Z,51.10
2019-02-25T15:15:37.486Z,51.10
2019-02-25T15:18:31.685Z,51.20
2019-02-25T15:21:24.085Z,51.30
2019-02-25T15:24:16.464Z,51.20
2019-02-25T15:27:10.627Z,51.20
2019-02-25T15:30:04.700Z,51.20
2019-02-25T15:32:58.981Z,51.20
2019-02-25T15:35:51.911Z,51.20
2019-02-25T15:38:43.781Z,51.30
2019-02-25T15:41:36.359Z,51.30
2019-02-25T15:44:29.083Z,51.30
2019-02-25T15:47:22.342Z,51.20
2019-02-25T15:50:15.961Z,51.20
2019-02-25T15:53:10.012Z,51.30
2019-02-25T15:56:03.701Z,51.20
2019-02-25T15:58:56.766Z,51.30
2019-02-25T16:01:49.531Z,51.30
2019-02-25T16:04:42.387Z,51.30
2019-02-25T16:07:35.754Z,51.30
2019-02-25T16:10:28.424Z,51.30
2019-02-25T16:13:20.657Z,51.50
2019-02-25T16:16:13.103Z,51.40
2019-02-25T16:19:06.005Z,51.40
2019-02-25T16:22:00.251Z,51.40
2019-02-25T16:24:52.933Z,51.40
2019-02-25T16:27:49.445Z,51.40
2019-02-25T16:30:42.091Z,51.40
2019-02-25T16:33:35.337Z,51.40
2019-02-25T16:36:28.312Z,51.50
2019-02-25T16:39:22.043Z,51.50
2019-02-25T16:42:14.752Z,51.50
2019-02-25T16:45:09.619Z,51.50
2019-02-25T16:48:01.695Z,51.50
2019-02-25T16:50:54.517Z,51.50
2019-02-25T16:53:52.257Z,51.50
2019-02-25T16:56:44.017Z,51.50
2019-02-25T16:59:36.387Z,51.50
2019-02-25T17:02:30.209Z,51.50
2019-02-25T17:05:22.956Z,51.50
2019-02-25T17:08:18.453Z,51.50
2019-02-25T17:11:10.856Z,51.50
2019-02-25T17:14:06.659Z,51.50
2019-02-25T17:16:58.907Z,51.60
2019-02-25T17:19:51.451Z,51.50
2019-02-25T17:22:44.985Z,51.50
2019-02-25T17:25:40.326Z,51.60
2019-02-25T17:28:30.735Z,51.50
2019-02-25T17:31:23.193Z,51.60
2019-02-25T17:34:16.578Z,51.60
2019-02-25T17:37:10.427Z,51.50
2019-02-25T17:40:06.378Z,51.60
2019-02-25T17:42:58.383Z,51.50
2019-02-25T17:45:51.127Z,51.50
2019-02-25T17:48:45.991Z,51.50
2019-02-25T17:51:38.590Z,51.60
2019-02-25T17:54:31.225Z,51.60
2019-02-25T17:57:25.682Z,51.60
2019-02-25T18:00:20.424Z,51.60
2019-02-25T18:03:14.920Z,51.70
2019-02-25T18:06:07.533Z,51.70
2019-02-25T18:09:02.009Z,51.80
2019-02-25T18:11:55.118Z,51.70
2019-02-25T18:14:47.749Z,51.70
2019-02-25T18:17:42.625Z,52.00
2019-02-25T18:20:33.664Z,52.20
2019-02-25T18:23:26.302Z,52.00
2019-02-25T18:26:18.887Z,52.60
2019-02-25T18:29:12.351Z,52.80
2019-02-25T18:32:06.462Z,52.90
2019-02-25T18:35:00.474Z,53.00
2019-02-25T18:37:53.924Z,53.00
2019-02-25T18:40:46.310Z,53.00
2019-02-25T18:43:39.522Z,53.00
2019-02-25T18:46:32.442Z,53.10
2019-02-25T18:49:26.612Z,53.10
2019-02-25T18:52:18.986Z,53.10
2019-02-25T18:55:12.160Z,53.20
2019-02-25T18:58:05.621Z,53.20
2019-02-25T19:00:59.085Z,53.10
2019-02-25T19:03:52.629Z,53.10
2019-02-25T19:06:46.217Z,53.20
2019-02-25T19:09:40.850Z,53.10
2019-02-25T19:12:35.024Z,53.10
2019-02-25T19:15:27.171Z,53.20
2019-02-25T19:18:19.579Z,53.20
2019-02-25T19:21:12.334Z,53.20
2019-02-25T19:24:05.812Z,53.20
2019-02-25T19:26:58.081Z,53.20
2019-02-25T19:29:51.547Z,53.20
2019-02-25T19:32:43.819Z,53.20
2019-02-25T19:35:38.333Z,53.20
2019-02-25T19:38:32.015Z,53.20
2019-02-25T19:41:24.529Z,53.20
2019-02-25T19:44:15.857Z,53.20
2019-02-25T19:47:09.842Z,53.20
2019-02-25T19:50:02.832Z,53.30
2019-02-25T19:53:00.349Z,53.30
2019-02-25T19:55:51.830Z,53.30
2019-02-25T19:58:43.595Z,53.30
2019-02-25T20:01:35.886Z,53.30
2019-02-25T20:04:28.302Z,53.50
2019-02-25T20:07:25.590Z,53.40
2019-02-25T20:10:14.555Z,53.30
2019-02-25T20:13:08.742Z,53.30
2019-02-25T20:16:07.597Z,53.30
2019-02-25T20:18:55.883Z,53.30
2019-02-25T20:21:49.901Z,53.30
2019-02-25T20:24:45.984Z,53.50
2019-02-25T20:27:36.623Z,53.30
2019-02-25T20:30:30.547Z,53.30
2019-02-25T20:33:25.671Z,53.40
2019-02-25T20:36:19.255Z,53.40
2019-02-25T20:39:09.711Z,53.30
2019-02-25T20:42:02.071Z,53.40
2019-02-25T20:44:55.269Z,53.40
2019-02-25T20:47:48.143Z,53.40
2019-02-25T20:50:41.917Z,53.50
2019-02-25T20:53:34.194Z,53.40
2019-02-25T20:56:27.094Z,53.50
2019-02-25T20:59:21.078Z,53.40
2019-02-25T21:02:16.368Z,53.40
2019-02-25T21:05:09.747Z,53.30
2019-02-25T21:08:02.798Z,53.40
2019-02-25T21:10:55.295Z,53.50
2019-02-25T21:13:47.633Z,53.60
2019-02-25T21:16:40.070Z,53.50
2019-02-25T21:19:35.646Z,53.50
2019-02-25T21:22:27.402Z,53.50
2019-02-25T21:25:24.407Z,53.60
2019-02-25T21:28:15.268Z,53.50
2019-02-25T21:31:13.468Z,53.50
2019-02-25T21:34:01.319Z,53.50
2019-02-25T21:36:54.629Z,53.50
2019-02-25T21:39:46.508Z,53.50
2019-02-25T21:42:41.681Z,53.40
2019-02-25T21:45:32.971Z,53.40
2019-02-25T21:48:27.057Z,53.40
2019-02-25T21:51:18.886Z,53.50
2019-02-25T21:54:11.279Z,53.50
2019-02-25T21:57:04.952Z,53.50
2019-02-25T21:59:58.244Z,53.50
2019-02-25T22:02:52.549Z,54.10
2019-02-25T22:05:44.277Z,53.40
2019-02-25T22:08:36.648Z,53.40
2019-02-25T22:11:29.137Z,53.50
2019-02-25T22:14:23.376Z,53.40
2019-02-25T22:17:17.390Z,53.50
2019-02-25T22:20:09.738Z,53.60
2019-02-25T22:23:04.067Z,53.50
2019-02-25T22:25:57.121Z,53.50
2019-02-25T22:28:51.059Z,53.60
2019-02-25T22:31:44.315Z,53.50
2019-02-25T22:37:46.749Z,53.60
2019-02-25T22:40:36.671Z,53.60
2019-02-25T22:43:28.734Z,53.60
2019-02-25T22:46:21.075Z,53.60
2019-02-25T22:49:13.518Z,53.60
2019-02-25T22:52:07.299Z,53.50
2019-02-25T22:54:59.694Z,53.70
2019-02-25T22:57:54.034Z,53.60
2019-02-25T23:00:48.907Z,53.60
2019-02-25T23:03:44.892Z,53.60
2019-02-25T23:06:39.744Z,53.60
2019-02-25T23:09:30.169Z,53.60
2019-02-25T23:12:24.129Z,53.60
2019-02-25T23:15:18.139Z,53.60
2019-02-25T23:18:12.071Z,53.70
2019-02-25T23:21:03.683Z,53.70
2019-02-25T23:23:58.144Z,53.60
2019-02-25T23:26:52.889Z,53.60
2019-02-25T23:29:47.817Z,53.60
2019-02-25T23:32:39.422Z,53.70
2019-02-25T23:35:31.945Z,53.70
2019-02-25T23:38:24.197Z,53.70
2019-02-25T23:41:16.743Z,53.70
2019-02-25T23:44:08.986Z,53.70
2019-02-25T23:47:04.218Z,53.70
2019-02-25T23:49:55.988Z,53.70
2019-02-25T23:52:48.198Z,53.80
2019-02-25T23:55:43.162Z,53.80
2019-02-25T23:58:34.171Z,53.90
